Time;durP1;ratioP1;P1;durP2;ratioP2;P2;SDS_P1;SDS_P2;PMS_P1;PMS_P2;Temp;Humidity;BMP_temperature;BMP_pressure;BME280_temperature;BME280_humidity;BME280_pressure;Samples;Min_cycle;Max_cycle;Signal;HPM_P1;HPM_P2
2023/05/31 00:02:09;;;;;;;14.55;7.80;;;11.40;99.90;;;;;;2602642;54;20057;31
2023/05/31 00:04:47;;;;;;;16.50;8.20;;;11.40;99.90;;;;;;2602866;54;21697;31
2023/05/31 00:07:37;;;;;;;13.15;8.43;;;11.40;99.90;;;;;;2603441;54;20057;31
2023/05/31 00:10:14;;;;;;;12.90;8.10;;;11.30;99.90;;;;;;2603444;54;20137;31
2023/05/31 00:12:57;;;;;;;12.70;6.57;;;11.30;99.90;;;;;;2603406;54;20911;31
2023/05/31 00:15:33;;;;;;;12.20;6.38;;;11.30;99.90;;;;;;2602825;54;20026;31
2023/05/31 00:18:09;;;;;;;10.00;5.70;;;11.30;99.90;;;;;;2701262;39;21529;31
2023/05/31 00:20:45;;;;;;;13.85;6.95;;;11.20;99.90;;;;;;2621805;46;20108;31
2023/05/31 00:23:23;;;;;;;15.63;8.98;;;11.20;99.90;;;;;;2603394;54;20089;31
2023/05/31 00:26:09;;;;;;;14.73;7.60;;;11.10;99.90;;;;;;2603415;54;20760;31
2023/05/31 00:28:49;;;;;;;14.52;7.88;;;11.10;99.90;;;;;;2603448;54;20023;31
2023/05/31 00:31:26;;;;;;;17.25;8.50;;;11.10;99.90;;;;;;2602510;54;20101;31
2023/05/31 00:34:04;;;;;;;15.35;8.35;;;11.00;99.90;;;;;;2603258;54;20053;31
2023/05/31 00:36:40;;;;;;;17.83;8.67;;;10.90;99.90;;;;;;2602671;54;20521;31
2023/05/31 00:39:17;;;;;;;17.47;8.13;;;10.90;99.90;;;;;;2602785;54;20030;31
2023/05/31 00:41:53;;;;;;;16.85;8.50;;;10.80;99.90;;;;;;2603132;54;20026;31
2023/05/31 00:44:50;;;;;;;18.00;9.25;;;10.80;99.90;;;;;;2603124;54;22402;31
2023/05/31 00:47:27;;;;;;;15.10;7.75;;;10.80;99.90;;;;;;2621511;46;20839;31
2023/05/31 00:50:02;;;;;;;15.05;7.93;;;10.70;99.90;;;;;;2603358;54;20850;31
2023/05/31 00:52:39;;;;;;;14.48;8.50;;;10.70;99.90;;;;;;2603182;54;20851;31
2023/05/31 00:55:15;;;;;;;14.38;8.65;;;10.70;99.90;;;;;;2602952;54;20991;31
2023/05/31 00:57:50;;;;;;;;;;;10.70;99.90;;;;;;2603659;54;19980;31
2023/05/31 01:00:30;;;;;;;15.52;8.82;;;10.70;99.90;;;;;;2603403;54;19984;31
2023/05/31 01:03:08;;;;;;;15.50;8.57;;;10.60;99.90;;;;;;2603427;54;20030;31
2023/05/31 01:05:47;;;;;;;12.85;8.60;;;10.50;99.90;;;;;;2603213;54;20049;31
2023/05/31 01:08:27;;;;;;;18.10;9.57;;;10.50;99.90;;;;;;2603348;54;21608;31
2023/05/31 01:11:07;;;;;;;22.10;10.48;;;10.50;99.90;;;;;;2603412;54;20137;31
2023/05/31 01:13:49;;;;;;;22.10;11.45;;;10.40;99.90;;;;;;2603151;54;21719;31
2023/05/31 01:19:06;;;;;;;15.18;8.60;;;10.40;99.90;;;;;;2603340;54;20887;31
2023/05/31 01:21:53;;;;;;;18.88;10.25;;;10.40;99.90;;;;;;2602421;54;21371;31
2023/05/31 01:24:30;;;;;;;20.90;10.07;;;10.40;99.90;;;;;;2701533;39;21639;31
2023/05/31 01:27:11;;;;;;;15.02;8.15;;;10.40;99.90;;;;;;2603326;54;20145;31
2023/05/31 01:29:50;;;;;;;15.93;9.18;;;10.30;99.90;;;;;;2701513;39;21555;31
2023/05/31 01:32:26;;;;;;;18.97;10.10;;;10.30;99.90;;;;;;2602634;54;20034;31
2023/05/31 01:35:01;;;;;;;;;;;10.30;99.90;;;;;;2603294;54;21290;31
2023/05/31 01:37:36;;;;;;;14.77;8.30;;;10.20;99.90;;;;;;2603064;54;19934;31
2023/05/31 01:40:15;;;;;;;16.52;10.02;;;10.10;99.90;;;;;;2603089;54;20112;31
2023/05/31 01:43:02;;;;;;;19.10;10.15;;;10.20;99.90;;;;;;2621632;46;20038;31
2023/05/31 01:45:38;;;;;;;19.90;9.82;;;10.10;99.90;;;;;;2603093;54;20802;31
2023/05/31 01:48:14;;;;;;;16.97;9.63;;;10.10;99.90;;;;;;2602856;54;20884;31
2023/05/31 01:50:52;;;;;;;17.50;9.60;;;10.10;99.90;;;;;;2602289;54;20243;31
2023/05/31 01:53:28;;;;;;;12.38;7.57;;;10.00;99.90;;;;;;2603085;54;20912;31
2023/05/31 01:56:05;;;;;;;15.52;9.60;;;10.00;99.90;;;;;;2603022;54;20030;31
2023/05/31 01:58:44;;;;;;;14.45;8.27;;;10.00;99.90;;;;;;2603015;54;20943;31
2023/05/31 02:01:22;;;;;;;16.92;9.30;;;9.90;99.90;;;;;;2603125;54;20655;31
2023/05/31 02:04:08;;;;;;;18.70;10.48;;;9.90;99.90;;;;;;2603198;54;20066;31
2023/05/31 02:06:46;;;;;;;17.65;9.57;;;9.80;99.90;;;;;;2603124;54;20027;31
2023/05/31 02:09:26;;;;;;;19.05;10.75;;;9.70;99.90;;;;;;2701727;39;21043;31
2023/05/31 02:12:05;;;;;;;19.33;10.65;;;9.70;99.90;;;;;;2612996;47;20029;31
2023/05/31 02:14:48;;;;;;;16.20;9.77;;;9.60;99.90;;;;;;2613947;47;20864;31
2023/05/31 02:17:28;;;;;;;17.02;8.77;;;9.50;99.90;;;;;;2602822;54;20037;31
2023/05/31 02:20:07;;;;;;;17.90;9.77;;;9.50;99.90;;;;;;2603067;54;20023;31
2023/05/31 02:22:43;;;;;;;15.07;8.83;;;9.50;99.90;;;;;;2621109;47;20842;31
2023/05/31 02:25:22;;;;;;;17.67;9.48;;;9.50;99.90;;;;;;2621689;47;20822;31
2023/05/31 02:27:59;;;;;;;15.40;9.73;;;9.50;99.90;;;;;;2603079;54;20765;31
2023/05/31 02:30:40;;;;;;;15.93;9.32;;;9.50;99.90;;;;;;2602995;54;20026;31
2023/05/31 02:33:16;;;;;;;16.60;9.35;;;9.40;99.90;;;;;;2603207;54;20105;31
2023/05/31 02:35:52;;;;;;;15.73;8.50;;;9.40;99.90;;;;;;2603075;54;20022;31
2023/05/31 02:38:31;;;;;;;15.23;8.88;;;9.40;99.90;;;;;;2602488;54;20019;31
2023/05/31 02:41:06;;;;;;;11.48;7.03;;;9.40;99.90;;;;;;2603820;54;19950;31
2023/05/31 02:43:51;;;;;;;15.40;9.32;;;9.40;99.90;;;;;;2602888;54;20909;31
2023/05/31 02:46:32;;;;;;;12.88;6.93;;;9.30;99.90;;;;;;2603126;54;20932;31
2023/05/31 02:49:08;;;;;;;16.50;7.80;;;9.40;99.90;;;;;;2701499;39;20489;31
2023/05/31 02:51:45;;;;;;;14.68;8.80;;;9.30;99.90;;;;;;2603806;54;20870;31
2023/05/31 02:54:43;;;;;;;17.63;9.50;;;9.30;99.90;;;;;;2603708;54;20030;31
2023/05/31 02:57:24;;;;;;;14.43;7.53;;;9.30;99.90;;;;;;2603627;54;19934;31
2023/05/31 03:00:13;;;;;;;12.70;7.50;;;9.20;99.90;;;;;;2603846;54;20022;31
2023/05/31 03:02:51;;;;;;;13.80;8.13;;;9.20;99.90;;;;;;2603537;54;20810;31
2023/05/31 03:05:44;;;;;;;13.32;6.60;;;9.20;99.90;;;;;;2622447;46;20031;31
2023/05/31 03:08:22;;;;;;;12.45;6.05;;;9.20;99.90;;;;;;2603805;54;20111;31
2023/05/31 03:11:02;;;;;;;12.30;6.05;;;9.20;99.90;;;;;;2603597;54;20105;31
2023/05/31 03:13:38;;;;;;;12.07;6.15;;;9.20;99.90;;;;;;2603607;54;20034;31
2023/05/31 03:16:20;;;;;;;14.90;8.00;;;9.20;99.90;;;;;;2603658;54;20562;31
2023/05/31 03:18:59;;;;;;;14.43;7.78;;;9.20;99.90;;;;;;2609264;46;20112;31
2023/05/31 03:21:37;;;;;;;15.30;7.60;;;9.20;99.90;;;;;;2616886;46;20620;31
2023/05/31 03:24:15;;;;;;;12.65;6.80;;;9.20;99.90;;;;;;2603006;54;20116;31
2023/05/31 03:26:54;;;;;;;16.97;8.23;;;9.20;99.90;;;;;;2612397;46;20053;31
2023/05/31 03:29:32;;;;;;;14.25;7.55;;;9.30;99.90;;;;;;2602869;54;20036;31
2023/05/31 03:32:10;;;;;;;12.82;7.43;;;9.30;99.90;;;;;;2603012;54;20030;31
2023/05/31 03:34:52;;;;;;;10.60;5.85;;;9.50;99.90;;;;;;2602856;54;20756;31
2023/05/31 03:37:33;;;;;;;10.77;5.77;;;9.60;99.90;;;;;;2622016;46;20305;31
2023/05/31 03:40:15;;;;;;;12.32;5.88;;;9.80;99.90;;;;;;2720345;39;21630;31
2023/05/31 03:42:55;;;;;;;12.27;6.47;;;10.00;99.90;;;;;;2603561;54;20698;31
2023/05/31 03:45:31;;;;;;;12.50;5.85;;;10.20;99.90;;;;;;2603657;54;20093;31
2023/05/31 03:48:07;;;;;;;;;;;10.40;99.90;;;;;;2603743;54;20035;31
2023/05/31 03:50:52;;;;;;;10.88;5.07;;;10.60;99.90;;;;;;2603663;54;19941;31
2023/05/31 03:53:26;;;;;;;12.85;5.93;;;10.70;99.90;;;;;;2621968;46;20026;31
2023/05/31 03:56:06;;;;;;;11.00;6.03;;;10.90;99.90;;;;;;2603545;54;20894;31
2023/05/31 03:58:41;;;;;;;14.30;6.40;;;11.10;99.90;;;;;;2720601;39;20480;31
2023/05/31 04:01:20;;;;;;;9.05;5.25;;;11.40;99.90;;;;;;2603347;54;20902;31
2023/05/31 04:03:56;;;;;;;13.38;5.43;;;11.60;99.90;;;;;;2603379;54;20036;31
2023/05/31 04:06:40;;;;;;;9.55;5.18;;;11.70;99.90;;;;;;2603383;54;20038;31
2023/05/31 04:09:17;;;;;;;12.00;5.80;;;12.00;99.90;;;;;;2621940;46;20105;31
2023/05/31 04:11:54;;;;;;;24.67;6.22;;;12.20;99.90;;;;;;2602858;54;20026;31
2023/05/31 04:14:40;;;;;;;14.95;5.80;;;12.40;99.90;;;;;;2603213;54;20207;31
2023/05/31 04:17:18;;;;;;;15.45;5.90;;;12.70;99.90;;;;;;2603124;54;20033;31
2023/05/31 04:19:55;;;;;;;12.75;5.18;;;12.90;99.90;;;;;;2702188;39;20385;31
2023/05/31 04:22:35;;;;;;;9.25;5.45;;;13.20;99.90;;;;;;2602763;54;20907;31
2023/05/31 04:25:13;;;;;;;8.32;5.40;;;13.40;99.90;;;;;;2602677;54;21003;31
2023/05/31 04:27:51;;;;;;;;;;;13.70;99.90;;;;;;2701890;39;20480;31
2023/05/31 04:30:30;;;;;;;10.43;5.00;;;13.90;99.90;;;;;;2603245;54;20796;31
2023/05/31 04:33:11;;;;;;;11.35;5.80;;;14.10;99.90;;;;;;2603498;54;20111;31
2023/05/31 04:35:50;;;;;;;11.30;5.55;;;14.40;99.90;;;;;;2603324;54;20045;31
2023/05/31 04:38:32;;;;;;;12.93;5.37;;;14.60;99.90;;;;;;2603362;54;20139;31
2023/05/31 04:41:09;;;;;;;14.00;5.32;;;14.80;99.90;;;;;;2603489;54;20831;31
2023/05/31 04:43:47;;;;;;;9.93;5.32;;;15.10;99.90;;;;;;2603471;54;20038;31
2023/05/31 04:46:25;;;;;;;13.57;5.00;;;15.40;99.90;;;;;;2603334;54;20834;31
2023/05/31 04:49:07;;;;;;;7.57;3.77;;;15.70;99.90;;;;;;2603438;54;20033;31
2023/05/31 04:51:43;;;;;;;7.75;3.60;;;16.00;99.90;;;;;;2603287;54;20071;31
2023/05/31 04:54:31;;;;;;;10.05;4.55;;;16.30;99.90;;;;;;2602973;54;20033;31
2023/05/31 04:57:13;;;;;;;10.80;4.18;;;16.60;99.90;;;;;;2603192;54;20872;31
2023/05/31 04:59:50;;;;;;;7.32;4.50;;;16.80;99.90;;;;;;2621764;47;20026;31
2023/05/31 05:02:29;;;;;;;6.85;3.92;;;17.10;99.90;;;;;;2621641;46;20027;31
2023/05/31 05:05:10;;;;;;;8.43;4.05;;;17.30;99.90;;;;;;2603108;54;20026;31
2023/05/31 05:07:46;;;;;;;15.50;4.67;;;17.60;99.90;;;;;;2603218;54;20033;31
2023/05/31 05:10:32;;;;;;;9.40;4.35;;;17.90;99.90;;;;;;2603237;54;20045;31
2023/05/31 05:13:11;;;;;;;32.70;6.40;;;18.10;99.90;;;;;;2603187;54;20042;31
2023/05/31 05:15:49;;;;;;;12.25;4.07;;;18.30;99.90;;;;;;2603189;54;20026;31
2023/05/31 05:18:24;;;;;;;15.90;5.80;;;18.60;99.90;;;;;;2603078;54;20034;31
2023/05/31 05:21:04;;;;;;;12.13;4.88;;;18.70;99.90;;;;;;2606563;46;20904;31
2023/05/31 05:23:42;;;;;;;21.55;4.57;;;18.90;99.90;;;;;;2602995;54;20022;31
2023/05/31 05:26:21;;;;;;;11.15;4.00;;;19.10;99.90;;;;;;2621439;46;20116;31
2023/05/31 05:28:57;;;;;;;8.35;3.83;;;19.20;99.90;;;;;;2603056;54;20026;31
2023/05/31 05:31:33;;;;;;;9.60;3.30;;;19.40;99.90;;;;;;2701698;39;21539;31
2023/05/31 05:34:12;;;;;;;7.97;3.53;;;19.50;99.90;;;;;;2701660;39;21573;31
2023/05/31 05:36:49;;;;;;;6.93;3.40;;;19.70;99.90;;;;;;2603144;54;20089;31
2023/05/31 05:39:26;;;;;;;8.00;3.50;;;19.90;99.90;;;;;;2701496;39;21550;31
2023/05/31 05:42:08;;;;;;;10.52;3.67;;;20.10;99.90;;;;;;2603307;54;20859;31
2023/05/31 05:44:51;;;;;;;7.40;3.88;;;20.20;99.90;;;;;;2602999;54;21646;31
2023/05/31 05:47:28;;;;;;;12.55;4.03;;;20.30;99.90;;;;;;2603271;54;20027;31
2023/05/31 05:50:06;;;;;;;9.20;3.60;;;20.50;99.90;;;;;;2602324;54;20030;31
2023/05/31 05:52:46;;;;;;;10.20;3.50;;;20.80;99.90;;;;;;2602241;54;20462;31
2023/05/31 05:55:24;;;;;;;6.70;3.20;;;20.90;99.90;;;;;;2603090;54;20081;31
2023/05/31 05:58:04;;;;;;;7.30;3.10;;;21.00;99.90;;;;;;2603290;54;20027;31
2023/05/31 06:01:07;;;;;;;6.45;3.65;;;21.30;99.90;;;;;;2603090;54;20023;31
2023/05/31 06:03:48;;;;;;;9.98;3.50;;;21.50;99.90;;;;;;2603133;54;20140;31
2023/05/31 06:06:26;;;;;;;9.25;3.20;;;21.70;99.90;;;;;;2610368;47;20875;31
2023/05/31 06:09:03;;;;;;;6.82;3.00;;;21.80;99.90;;;;;;2603304;54;20026;31
2023/05/31 06:11:41;;;;;;;11.82;3.42;;;22.00;99.90;;;;;;2603782;54;21287;31
2023/05/31 06:14:20;;;;;;;7.22;3.15;;;22.20;99.90;;;;;;2702369;39;21733;31
2023/05/31 06:17:00;;;;;;;3.90;2.73;;;22.30;99.90;;;;;;2602963;54;20018;31
2023/05/31 06:19:39;;;;;;;5.07;2.28;;;22.50;99.10;;;;;;2603132;54;21224;31
2023/05/31 06:22:16;;;;;;;8.07;2.28;;;22.70;98.80;;;;;;2615508;46;20491;31
2023/05/31 06:24:57;;;;;;;6.47;2.13;;;22.80;97.60;;;;;;2603810;54;20950;31
2023/05/31 06:27:34;;;;;;;4.10;2.27;;;22.90;96.60;;;;;;2622256;46;20033;31
2023/05/31 06:30:17;;;;;;;9.80;2.78;;;23.10;95.60;;;;;;2603268;54;20632;31
2023/05/31 06:32:55;;;;;;;8.60;2.58;;;23.20;95.20;;;;;;2602951;54;20887;31
2023/05/31 06:35:33;;;;;;;8.20;2.60;;;23.30;94.80;;;;;;2622123;46;20027;31
2023/05/31 06:38:14;;;;;;;8.30;2.60;;;23.40;95.10;;;;;;2603836;54;20030;31
2023/05/31 06:40:55;;;;;;;9.80;2.63;;;23.70;94.60;;;;;;2603758;54;20922;31
2023/05/31 06:43:35;;;;;;;7.57;2.35;;;23.90;94.30;;;;;;2603710;54;20104;31
2023/05/31 06:46:28;;;;;;;6.93;2.55;;;24.00;92.70;;;;;;2604040;54;20052;31
2023/05/31 06:49:28;;;;;;;6.97;2.28;;;24.10;92.80;;;;;;2603659;54;20043;31
2023/05/31 06:52:43;;;;;;;6.53;2.73;;;24.30;92.30;;;;;;2702169;39;20586;31
2023/05/31 06:55:41;;;;;;;4.97;2.20;;;24.60;91.60;;;;;;2603927;54;20049;31
2023/05/31 06:58:22;;;;;;;9.07;2.30;;;24.70;91.70;;;;;;2603767;54;20034;31
2023/05/31 07:01:06;;;;;;;5.43;2.22;;;24.90;92.10;;;;;;2603741;54;20858;31
2023/05/31 07:03:46;;;;;;;6.40;2.13;;;25.00;89.20;;;;;;2603636;54;20935;31
2023/05/31 07:06:35;;;;;;;6.78;2.50;;;25.00;87.60;;;;;;2602917;54;20026;31
2023/05/31 07:09:16;;;;;;;6.75;2.20;;;25.10;87.70;;;;;;2603772;54;20026;31
2023/05/31 07:12:03;;;;;;;10.27;2.45;;;25.30;87.80;;;;;;2603632;54;20084;31
2023/05/31 07:14:43;;;;;;;6.90;2.55;;;25.40;87.50;;;;;;2603727;54;20023;31
2023/05/31 07:17:20;;;;;;;8.63;2.20;;;25.50;85.90;;;;;;2603579;54;20033;31
2023/05/31 07:19:59;;;;;;;6.93;2.58;;;25.70;83.60;;;;;;2603692;54;20026;31
2023/05/31 07:22:38;;;;;;;10.80;2.70;;;25.90;84.10;;;;;;2603392;54;20195;31
2023/05/31 07:25:15;;;;;;;7.00;2.73;;;26.10;83.60;;;;;;2603599;54;20034;31
2023/05/31 07:27:53;;;;;;;9.05;3.35;;;26.20;82.50;;;;;;2621840;46;20867;31
2023/05/31 07:30:31;;;;;;;7.15;2.78;;;26.30;83.10;;;;;;2622285;46;20030;31
2023/05/31 07:33:10;;;;;;;5.33;2.57;;;26.30;83.40;;;;;;2603755;54;20026;31
2023/05/31 07:35:56;;;;;;;6.45;2.20;;;26.40;82.00;;;;;;2621880;46;20026;31
2023/05/31 07:38:39;;;;;;;8.55;2.40;;;26.40;82.20;;;;;;2621995;46;20046;31
2023/05/31 07:41:16;;;;;;;6.47;2.72;;;26.70;82.30;;;;;;2603668;54;20902;31
2023/05/31 07:43:57;;;;;;;8.80;2.40;;;26.80;79.90;;;;;;2603556;54;20828;31
2023/05/31 07:46:38;;;;;;;5.50;2.40;;;27.00;79.80;;;;;;2603308;54;20108;31
2023/05/31 07:49:18;;;;;;;9.00;2.38;;;27.10;80.10;;;;;;2603537;54;20030;31
2023/05/31 07:51:53;;;;;;;3.85;1.75;;;27.20;76.10;;;;;;2603267;54;20022;31
2023/05/31 07:54:32;;;;;;;;;;;27.10;77.30;;;;;;2603492;54;20101;31
2023/05/31 07:57:10;;;;;;;7.47;2.00;;;27.20;76.00;;;;;;2603295;54;20758;31
2023/05/31 07:59:47;;;;;;;8.45;2.00;;;27.40;76.70;;;;;;2603363;54;20903;31
2023/05/31 08:02:26;;;;;;;5.93;2.13;;;27.60;76.20;;;;;;2603370;54;20026;31
2023/05/31 08:05:04;;;;;;;7.13;2.00;;;27.70;78.90;;;;;;2603573;54;20026;31
2023/05/31 08:07:42;;;;;;;6.00;1.90;;;27.70;75.30;;;;;;2622132;46;20915;31
2023/05/31 08:10:19;;;;;;;6.07;2.00;;;27.70;73.80;;;;;;2603476;54;20033;31
2023/05/31 08:13:02;;;;;;;4.60;1.83;;;27.80;76.20;;;;;;2614446;46;20092;31
2023/05/31 08:15:38;;;;;;;7.05;2.40;;;27.90;74.90;;;;;;2603485;54;19980;31
2023/05/31 08:18:17;;;;;;;8.90;2.20;;;28.00;73.50;;;;;;2702228;39;21000;31
2023/05/31 08:20:54;;;;;;;7.07;2.17;;;28.00;72.00;;;;;;2603530;54;20471;31
2023/05/31 08:23:37;;;;;;;5.72;1.90;;;28.10;72.10;;;;;;2603331;54;20034;31
2023/05/31 08:26:16;;;;;;;5.32;2.03;;;28.30;70.40;;;;;;2603445;54;20027;31
2023/05/31 08:28:55;;;;;;;5.25;1.63;;;28.30;69.70;;;;;;2603540;54;20034;31
2023/05/31 08:31:33;;;;;;;6.70;1.65;;;28.30;69.00;;;;;;2608176;46;20019;31
2023/05/31 08:34:12;;;;;;;4.30;1.40;;;28.30;68.30;;;;;;2603393;54;20026;31
2023/05/31 08:36:51;;;;;;;5.00;1.75;;;28.40;68.50;;;;;;2603225;54;20744;31
2023/05/31 08:39:30;;;;;;;4.07;1.77;;;28.50;71.10;;;;;;2621766;46;20650;31
2023/05/31 08:42:09;;;;;;;6.03;2.08;;;28.50;69.50;;;;;;2603668;54;20071;31
2023/05/31 08:44:49;;;;;;;10.80;1.50;;;28.50;69.30;;;;;;2603280;54;20744;31
2023/05/31 08:47:30;;;;;;;4.20;1.83;;;28.60;66.80;;;;;;2621466;46;20117;31
2023/05/31 08:50:08;;;;;;;7.93;1.50;;;28.60;66.90;;;;;;2603349;54;20049;31
2023/05/31 08:52:46;;;;;;;5.20;1.50;;;28.60;67.50;;;;;;2602714;54;20868;31
2023/05/31 08:55:28;;;;;;;6.83;1.63;;;28.80;69.40;;;;;;2602688;54;20923;31
2023/05/31 08:58:04;;;;;;;4.50;1.50;;;28.80;68.70;;;;;;2603544;54;20157;31
2023/05/31 09:00:46;;;;;;;3.80;1.53;;;28.90;68.30;;;;;;2603842;46;20833;31
2023/05/31 09:03:25;;;;;;;6.05;1.60;;;28.90;67.90;;;;;;2603406;54;20022;31
2023/05/31 09:06:00;;;;;;;4.80;2.05;;;29.00;68.60;;;;;;2603406;54;20029;31
2023/05/31 09:08:37;;;;;;;2.97;1.15;;;29.20;67.90;;;;;;2621782;46;20134;31
2023/05/31 09:11:14;;;;;;;1.98;0.88;;;29.30;67.50;;;;;;2603530;54;20089;31
2023/05/31 09:13:51;;;;;;;6.00;1.43;;;29.20;64.80;;;;;;2603438;54;20030;31
2023/05/31 09:16:31;;;;;;;5.47;1.40;;;29.20;64.70;;;;;;2621942;46;20081;31
2023/05/31 09:19:07;;;;;;;7.45;1.20;;;29.20;64.60;;;;;;2603449;54;20030;31
2023/05/31 09:21:47;;;;;;;5.75;1.55;;;29.10;64.80;;;;;;2603464;54;20057;31
2023/05/31 09:24:24;;;;;;;7.65;1.00;;;29.20;65.40;;;;;;2603470;54;20854;31
2023/05/31 09:27:03;;;;;;;3.40;1.42;;;29.30;64.70;;;;;;2603421;54;20034;31
2023/05/31 09:29:40;;;;;;;2.28;1.00;;;29.30;65.00;;;;;;2621585;46;20924;31
2023/05/31 09:32:20;;;;;;;5.50;1.40;;;29.40;65.40;;;;;;2621911;46;20038;31
2023/05/31 09:35:14;;;;;;;3.50;1.43;;;29.40;64.20;;;;;;2603320;54;20030;31
2023/05/31 09:37:51;;;;;;;4.43;1.53;;;29.50;63.40;;;;;;2621724;46;20029;31
2023/05/31 09:40:30;;;;;;;4.70;1.17;;;29.40;64.10;;;;;;2602513;54;20254;31
2023/05/31 09:43:05;;;;;;;4.50;1.52;;;29.40;65.20;;;;;;2603085;54;20077;31
2023/05/31 09:45:43;;;;;;;3.33;1.30;;;29.40;62.50;;;;;;2603273;54;20022;31
2023/05/31 09:48:27;;;;;;;3.07;1.50;;;29.20;62.20;;;;;;2603080;54;20764;31
2023/05/31 09:51:03;;;;;;;6.15;1.55;;;28.90;63.50;;;;;;2603301;54;20985;31
2023/05/31 09:53:43;;;;;;;;;;;28.90;63.90;;;;;;2603394;54;20031;31
2023/05/31 09:56:22;;;;;;;5.70;1.50;;;29.00;64.60;;;;;;2602401;54;19949;31
2023/05/31 09:59:00;;;;;;;6.18;1.40;;;29.10;63.70;;;;;;2612941;47;21672;31
2023/05/31 10:01:36;;;;;;;3.70;1.20;;;29.10;62.90;;;;;;2603206;54;20112;31
2023/05/31 10:04:18;;;;;;;6.13;1.52;;;29.10;66.30;;;;;;2602333;54;20982;31
2023/05/31 10:06:53;;;;;;;4.53;1.23;;;29.10;63.60;;;;;;2603215;54;20031;31
2023/05/31 10:09:29;;;;;;;11.50;1.90;;;29.00;62.90;;;;;;2603112;54;20037;31
2023/05/31 10:12:06;;;;;;;6.75;1.45;;;29.00;65.90;;;;;;2700914;39;21820;31
2023/05/31 10:14:42;;;;;;;5.00;1.30;;;28.90;64.20;;;;;;2621649;47;20026;31
2023/05/31 10:17:17;;;;;;;3.23;1.30;;;28.80;62.90;;;;;;2603208;54;20042;31
2023/05/31 10:20:04;;;;;;;4.45;1.30;;;28.80;64.30;;;;;;2603263;54;20056;31
2023/05/31 10:22:43;;;;;;;1.95;1.10;;;28.70;66.50;;;;;;2603275;54;20857;31
2023/05/31 10:25:27;;;;;;;4.70;1.40;;;28.80;66.00;;;;;;2621942;47;20031;31
2023/05/31 10:28:06;;;;;;;4.30;1.40;;;28.90;61.60;;;;;;2603120;54;20031;31
2023/05/31 10:30:44;;;;;;;3.60;1.13;;;28.50;62.80;;;;;;2602898;54;20046;31
2023/05/31 10:33:24;;;;;;;4.85;1.52;;;28.50;63.10;;;;;;2602937;54;20033;31
2023/05/31 10:36:04;;;;;;;7.22;1.50;;;28.70;64.60;;;;;;2603232;54;20022;31
2023/05/31 10:38:43;;;;;;;6.82;1.42;;;28.80;65.80;;;;;;2602908;54;20602;31
2023/05/31 10:41:22;;;;;;;2.30;1.10;;;28.80;64.30;;;;;;2602951;54;20033;31
2023/05/31 10:44:02;;;;;;;5.33;1.57;;;28.80;64.50;;;;;;2603068;54;20155;31
2023/05/31 10:46:40;;;;;;;4.30;1.95;;;28.80;63.30;;;;;;2602357;54;21192;31
2023/05/31 10:49:18;;;;;;;3.45;1.30;;;28.60;63.30;;;;;;2603149;54;20919;31
2023/05/31 10:52:07;;;;;;;5.00;1.73;;;28.50;64.40;;;;;;2602225;54;20089;31
2023/05/31 10:54:43;;;;;;;4.63;1.40;;;28.40;63.70;;;;;;2602890;54;20033;31
2023/05/31 10:57:20;;;;;;;4.75;1.55;;;28.30;63.70;;;;;;2603469;54;20853;31
2023/05/31 10:59:57;;;;;;;2.75;1.73;;;28.30;64.30;;;;;;2603894;54;20026;31
2023/05/31 11:02:33;;;;;;;3.72;1.30;;;28.40;65.70;;;;;;2603668;54;20030;31
2023/05/31 11:05:22;;;;;;;5.10;1.10;;;28.30;63.60;;;;;;2622424;46;20034;31
2023/05/31 11:08:04;;;;;;;3.75;1.50;;;28.30;65.20;;;;;;2603704;54;20648;31
2023/05/31 11:10:42;;;;;;;5.05;1.40;;;28.30;64.40;;;;;;2603783;54;21025;31
2023/05/31 11:13:19;;;;;;;4.85;1.70;;;28.30;64.80;;;;;;2603146;54;20162;31
2023/05/31 11:15:58;;;;;;;2.50;1.17;;;28.30;65.30;;;;;;2622363;46;20034;31
2023/05/31 11:18:45;;;;;;;3.55;1.25;;;28.40;63.00;;;;;;2702411;39;20666;31
2023/05/31 11:21:54;;;;;;;3.07;1.63;;;28.30;62.50;;;;;;2603728;54;20238;31
2023/05/31 11:24:35;;;;;;;5.47;1.35;;;28.20;63.70;;;;;;2603558;54;20916;31
2023/05/31 11:27:15;;;;;;;3.55;1.20;;;28.00;63.40;;;;;;2608660;46;20023;31
2023/05/31 11:30:01;;;;;;;7.63;1.77;;;27.90;61.80;;;;;;2603629;54;20046;31
2023/05/31 11:33:07;;;;;;;5.10;1.60;;;27.80;61.80;;;;;;2603616;54;20057;31
2023/05/31 11:35:43;;;;;;;5.13;1.27;;;27.60;61.20;;;;;;2603648;54;20026;31
2023/05/31 11:38:20;;;;;;;4.18;1.30;;;27.50;60.50;;;;;;2621839;46;20033;31
2023/05/31 11:41:05;;;;;;;4.67;1.63;;;27.40;61.30;;;;;;2622068;46;20034;31
2023/05/31 11:43:41;;;;;;;4.90;1.20;;;27.40;62.70;;;;;;2603726;54;20085;31
2023/05/31 11:46:19;;;;;;;3.70;1.15;;;27.30;63.90;;;;;;2622198;46;19942;31
2023/05/31 11:48:54;;;;;;;4.35;1.23;;;27.40;64.70;;;;;;2603467;54;20100;31
2023/05/31 11:51:30;;;;;;;2.08;0.88;;;27.40;65.30;;;;;;2603770;54;20022;31
2023/05/31 11:54:14;;;;;;;5.18;1.42;;;27.40;64.10;;;;;;2603186;54;20038;31
2023/05/31 11:56:56;;;;;;;2.05;0.90;;;27.50;64.40;;;;;;2603625;54;20037;31
2023/05/31 11:59:31;;;;;;;4.10;1.25;;;27.40;60.80;;;;;;2603617;54;20869;31
2023/05/31 12:02:09;;;;;;;3.40;1.40;;;27.40;61.30;;;;;;2602912;54;20896;31
2023/05/31 12:04:45;;;;;;;1.92;1.33;;;27.20;60.60;;;;;;2603608;54;20034;31
2023/05/31 12:07:21;;;;;;;3.05;0.90;;;27.10;61.20;;;;;;2603205;54;20777;31
2023/05/31 12:09:57;;;;;;;4.13;1.63;;;27.10;62.00;;;;;;2603335;54;20056;31
2023/05/31 12:12:36;;;;;;;2.80;1.25;;;27.00;61.60;;;;;;2603369;54;20135;31
2023/05/31 12:15:14;;;;;;;4.13;1.23;;;26.80;61.10;;;;;;2603533;54;20140;31
2023/05/31 12:17:50;;;;;;;2.30;1.10;;;26.80;62.90;;;;;;2611089;46;20148;31
2023/05/31 12:20:25;;;;;;;;;;;26.80;64.40;;;;;;2603019;54;20064;31
2023/05/31 12:23:13;;;;;;;3.28;1.27;;;26.80;65.00;;;;;;2603440;54;20806;31
2023/05/31 12:25:49;;;;;;;3.08;1.20;;;26.80;63.40;;;;;;2603368;54;20022;31
2023/05/31 12:28:28;;;;;;;3.95;1.08;;;26.80;62.30;;;;;;2603547;54;20102;31
2023/05/31 12:31:05;;;;;;;8.03;1.73;;;26.80;62.50;;;;;;2603388;54;20037;31
2023/05/31 12:33:42;;;;;;;4.72;1.23;;;26.70;62.60;;;;;;2603605;54;20026;31
2023/05/31 12:36:21;;;;;;;4.65;1.40;;;26.70;63.60;;;;;;2603447;54;20775;31
2023/05/31 12:38:59;;;;;;;3.17;1.48;;;26.60;61.90;;;;;;2621565;46;20040;31
2023/05/31 12:41:35;;;;;;;3.22;1.30;;;26.50;62.40;;;;;;2605862;46;20027;31
2023/05/31 12:44:15;;;;;;;;;;;26.50;63.40;;;;;;2602924;54;20093;31
2023/05/31 12:46:53;;;;;;;6.43;1.50;;;26.50;61.40;;;;;;2621618;46;20786;31
2023/05/31 12:49:30;;;;;;;4.40;1.00;;;26.50;64.00;;;;;;2612021;46;20032;31
2023/05/31 12:52:06;;;;;;;3.30;1.05;;;26.60;63.40;;;;;;2603533;54;20841;31
2023/05/31 12:54:43;;;;;;;6.28;1.05;;;26.50;61.80;;;;;;2603674;54;20889;31
2023/05/31 12:57:19;;;;;;;3.38;1.38;;;26.50;62.20;;;;;;2603260;54;20117;31
2023/05/31 13:00:05;;;;;;;7.50;1.08;;;26.40;62.30;;;;;;2603365;54;20034;31
2023/05/31 13:02:44;;;;;;;2.35;1.00;;;26.40;62.20;;;;;;2603407;54;20026;31
2023/05/31 13:05:25;;;;;;;2.30;1.20;;;26.40;64.30;;;;;;2621690;46;21570;31
2023/05/31 13:08:01;;;;;;;7.25;1.40;;;26.30;62.00;;;;;;2603359;54;20100;31
2023/05/31 13:10:37;;;;;;;3.10;1.10;;;26.30;61.30;;;;;;2603407;54;20023;31
2023/05/31 13:13:14;;;;;;;4.10;1.10;;;26.20;61.50;;;;;;2603188;54;20049;31
2023/05/31 13:15:52;;;;;;;5.80;1.40;;;26.10;60.30;;;;;;2602715;54;20886;31
2023/05/31 13:18:31;;;;;;;4.38;1.48;;;26.20;62.80;;;;;;2602778;54;20026;31
2023/05/31 13:21:08;;;;;;;5.95;1.05;;;26.20;61.20;;;;;;2621930;46;19934;31
2023/05/31 13:23:44;;;;;;;6.25;1.38;;;26.20;60.70;;;;;;2603292;54;20033;31
2023/05/31 13:26:20;;;;;;;3.63;1.08;;;26.20;62.50;;;;;;2603536;54;20045;31
2023/05/31 13:28:56;;;;;;;11.32;2.28;;;26.10;60.60;;;;;;2603272;54;20036;31
2023/05/31 13:31:34;;;;;;;2.90;1.03;;;26.00;59.70;;;;;;2603296;54;20022;31
2023/05/31 13:34:10;;;;;;;3.00;1.50;;;26.00;59.30;;;;;;2603313;54;20744;31
2023/05/31 13:36:46;;;;;;;4.47;1.40;;;26.00;60.40;;;;;;2621156;46;20909;31
2023/05/31 13:39:21;;;;;;;4.35;1.30;;;26.00;61.20;;;;;;2621861;46;20160;31
2023/05/31 13:41:58;;;;;;;2.40;1.02;;;26.00;59.10;;;;;;2603272;54;20826;31
2023/05/31 13:44:33;;;;;;;1.77;0.97;;;26.00;60.10;;;;;;2621569;46;20030;31
2023/05/31 13:47:15;;;;;;;3.03;1.08;;;26.00;60.50;;;;;;2603084;54;20104;31
2023/05/31 13:49:51;;;;;;;3.13;1.05;;;26.00;61.10;;;;;;2621399;47;20816;31
2023/05/31 13:52:26;;;;;;;4.53;1.50;;;25.90;60.80;;;;;;2603322;54;20026;31
2023/05/31 13:55:01;;;;;;;2.80;1.10;;;25.90;60.90;;;;;;2603336;54;20892;31
2023/05/31 13:57:37;;;;;;;3.13;1.30;;;25.90;60.40;;;;;;2773305;31;21164;31
2023/05/31 14:00:13;;;;;;;3.10;1.42;;;26.00;59.00;;;;;;2603342;54;20026;31
2023/05/31 14:02:54;;;;;;;10.10;1.70;;;25.90;58.20;;;;;;2621388;47;20150;31